Time;durP1;ratioP1;P1;durP2;ratioP2;P2;SDS_P1;SDS_P2;PMS_P1;PMS_P2;Temp;Humidity;BMP_temperature;BMP_pressure;BME280_temperature;BME280_humidity;BME280_pressure;Samples;Min_cycle;Max_cycle;Signal;HPM_P1;HPM_P2
2022/12/30 00:00:10;;;;;;;24.38;2.58;;;6.70;99.90;;;;;;5014012;28;20131;-80
2022/12/30 00:02:36;;;;;;;24.23;2.47;;;6.60;99.90;;;;;;5013479;28;20041;-81
2022/12/30 00:05:02;;;;;;;17.80;2.13;;;6.60;99.90;;;;;;5013503;28;20083;-81
2022/12/30 00:07:28;;;;;;;21.02;2.55;;;6.50;99.90;;;;;;5013638;28;20435;-81
2022/12/30 00:09:54;;;;;;;21.30;2.72;;;6.50;99.90;;;;;;5013682;28;20041;-81
2022/12/30 00:34:38;;;;;;;16.70;3.25;;;7.40;99.90;;;;;;5023247;28;20052;-81
2022/12/30 00:37:04;;;;;;;21.48;3.72;;;6.30;99.90;;;;;;5013342;28;20049;-81
2022/12/30 00:39:30;;;;;;;21.17;3.17;;;6.30;99.90;;;;;;5029436;28;20094;-81
2022/12/30 00:44:39;;;;;;;14.65;2.63;;;5.90;99.90;;;;;;5029168;28;20064;-80
2022/12/30 00:47:08;;;;;;;21.50;3.25;;;6.30;99.90;;;;;;5013754;28;20053;-81
2022/12/30 00:57:46;;;;;;;18.05;3.00;;;6.20;99.90;;;;;;5015027;28;20408;-81
2022/12/30 01:00:13;;;;;;;18.05;2.55;;;6.50;99.90;;;;;;5029836;28;20051;-81
2022/12/30 01:02:39;;;;;;;27.65;2.33;;;6.10;99.90;;;;;;5029243;28;20048;-81
2022/12/30 01:05:05;;;;;;;14.98;2.25;;;6.10;99.90;;;;;;5012490;28;20056;-80
2022/12/30 01:07:31;;;;;;;18.33;3.17;;;6.10;99.90;;;;;;4996398;28;20049;-80
2022/12/30 01:09:58;;;;;;;19.33;3.25;;;6.10;99.90;;;;;;5028702;28;20129;-81
2022/12/30 01:12:24;;;;;;;21.50;3.58;;;6.00;99.90;;;;;;5012921;28;20051;-81
2022/12/30 01:14:52;;;;;;;18.58;2.92;;;6.00;99.90;;;;;;5012153;28;20037;-81
2022/12/30 01:17:30;;;;;;;16.10;3.22;;;5.90;99.90;;;;;;5012739;28;20071;-81
2022/12/30 01:19:56;;;;;;;27.88;3.15;;;6.00;99.90;;;;;;5028873;28;20041;-81
2022/12/30 01:22:22;;;;;;;22.05;2.85;;;5.90;99.90;;;;;;4996290;28;20106;-81
2022/12/30 01:24:48;;;;;;;19.63;2.83;;;5.90;99.90;;;;;;5029133;28;20040;-81
2022/12/30 01:27:15;;;;;;;24.08;3.40;;;7.00;99.90;;;;;;5012124;28;20495;-81
2022/12/30 01:29:42;;;;;;;18.58;3.05;;;7.10;99.90;;;;;;5029330;28;20161;-80
2022/12/30 01:32:11;;;;;;;26.00;3.42;;;5.90;99.90;;;;;;5012204;28;20124;-81
2022/12/30 01:34:37;;;;;;;21.15;2.92;;;6.00;99.90;;;;;;5029589;28;20048;-82
2022/12/30 01:37:03;;;;;;;21.63;2.88;;;5.80;99.90;;;;;;5029758;28;20080;-81
2022/12/30 01:39:29;;;;;;;28.15;3.13;;;5.80;99.90;;;;;;5029029;28;20460;-81
2022/12/30 01:41:56;;;;;;;17.63;3.03;;;6.70;99.90;;;;;;4996188;28;20060;-82
2022/12/30 01:45:01;;;;;;;21.23;3.72;;;5.80;99.90;;;;;;5028829;28;20063;-80
2022/12/30 01:47:30;;;;;;;18.40;2.30;;;5.80;99.90;;;;;;5012300;28;20076;-81
2022/12/30 01:50:13;;;;;;;20.95;2.92;;;5.80;99.90;;;;;;5029094;28;20447;-80
2022/12/30 01:52:40;;;;;;;;;;;5.80;99.90;;;;;;5029138;28;20403;-80
2022/12/30 01:55:11;;;;;;;18.05;2.20;;;5.90;99.90;;;;;;5028856;28;19921;-80
2022/12/30 01:57:40;;;;;;;25.63;3.30;;;7.10;99.90;;;;;;5011731;28;20057;-81
2022/12/30 02:00:08;;;;;;;18.65;2.80;;;6.80;99.90;;;;;;5029048;28;20365;-80
2022/12/30 02:02:34;;;;;;;15.32;2.80;;;5.80;99.90;;;;;;5012479;28;20087;-81
2022/12/30 02:05:01;;;;;;;33.33;4.47;;;5.80;99.90;;;;;;5012335;28;20084;-81
2022/12/30 02:07:37;;;;;;;23.05;2.72;;;5.90;99.90;;;;;;5012241;28;20075;-81
2022/12/30 02:10:03;;;;;;;20.83;3.08;;;5.90;99.90;;;;;;5028765;28;20170;-81
2022/12/30 02:12:28;;;;;;;22.52;3.70;;;5.90;99.90;;;;;;5012418;28;20425;-81
2022/12/30 02:14:56;;;;;;;21.35;2.60;;;5.90;99.90;;;;;;5028325;28;20041;-81
2022/12/30 02:17:51;;;;;;;13.73;2.42;;;5.90;99.90;;;;;;5012116;28;20045;-81
2022/12/30 02:20:31;;;;;;;24.10;2.85;;;5.90;99.90;;;;;;5028620;28;20049;-81
2022/12/30 02:23:16;;;;;;;24.88;3.15;;;5.90;99.90;;;;;;5028682;28;20468;-81
2022/12/30 02:26:09;;;;;;;19.75;2.70;;;5.90;99.90;;;;;;5028458;28;20049;-81
2022/12/30 02:29:08;;;;;;;26.33;3.13;;;5.90;99.90;;;;;;5047113;28;20045;-80
2022/12/30 02:31:38;;;;;;;25.80;2.83;;;5.90;99.90;;;;;;5031550;28;20110;-81
2022/12/30 02:34:32;;;;;;;22.13;3.53;;;5.90;99.90;;;;;;5031980;28;20048;-80
2022/12/30 02:37:13;;;;;;;;;;;6.00;99.90;;;;;;5032761;28;20056;-81
2022/12/30 02:39:44;;;;;;;14.80;2.85;;;6.00;99.90;;;;;;5031709;28;19981;-81
2022/12/30 02:45:29;;;;;;;24.52;2.97;;;6.00;99.90;;;;;;5031696;28;20049;-81
2022/12/30 02:48:01;;;;;;;23.65;2.85;;;5.90;99.90;;;;;;5032297;28;20055;-82
2022/12/30 02:53:19;;;;;;;23.67;4.38;;;6.00;99.90;;;;;;5032238;28;20049;-81
2022/12/30 02:55:45;;;;;;;29.42;3.83;;;5.90;99.90;;;;;;5015917;28;20044;-81
2022/12/30 02:58:12;;;;;;;30.83;4.57;;;5.90;99.90;;;;;;5050057;28;20053;-81
2022/12/30 03:04:15;;;;;;;14.23;2.38;;;5.90;99.90;;;;;;4971456;28;20526;-81
2022/12/30 03:06:56;;;;;;;27.30;3.13;;;5.90;99.90;;;;;;5031258;28;20049;-80
2022/12/30 03:09:35;;;;;;;25.35;3.33;;;5.80;99.90;;;;;;5031509;28;20037;-81
2022/12/30 03:12:19;;;;;;;16.50;3.55;;;5.80;99.90;;;;;;5031353;28;20052;-81
2022/12/30 03:14:50;;;;;;;25.90;2.97;;;5.90;99.90;;;;;;5031229;28;20045;-81
2022/12/30 03:17:23;;;;;;;16.75;2.55;;;5.90;99.90;;;;;;5014601;28;20279;-81
2022/12/30 03:19:54;;;;;;;11.57;2.50;;;7.10;99.90;;;;;;5031100;28;20529;-81
2022/12/30 03:27:57;;;;;;;20.10;3.42;;;5.80;99.90;;;;;;5031096;28;20408;-80
2022/12/30 03:30:23;;;;;;;21.98;3.22;;;5.70;99.90;;;;;;5014476;28;20080;-81
2022/12/30 03:32:49;;;;;;;22.20;3.45;;;6.10;99.90;;;;;;4998150;28;20067;-80
2022/12/30 03:35:15;;;;;;;15.38;2.38;;;5.80;99.90;;;;;;4998128;28;20484;-81
2022/12/30 03:37:53;;;;;;;22.30;2.60;;;5.80;99.90;;;;;;5030766;28;20139;-80
2022/12/30 03:40:28;;;;;;;18.83;2.70;;;5.70;99.90;;;;;;5029259;28;20061;-81
2022/12/30 03:42:55;;;;;;;14.63;3.22;;;5.70;99.90;;;;;;5014130;28;20080;-81
2022/12/30 03:45:21;;;;;;;27.25;2.67;;;5.70;99.90;;;;;;5030597;28;20045;-81
2022/12/30 03:47:47;;;;;;;22.20;3.35;;;5.70;99.90;;;;;;5030319;28;20253;-81
2022/12/30 03:50:13;;;;;;;29.98;2.40;;;5.60;99.90;;;;;;5030724;28;20048;-81
2022/12/30 03:52:39;;;;;;;20.38;3.58;;;5.60;99.90;;;;;;5013496;28;20080;-80
2022/12/30 03:55:05;;;;;;;20.77;4.07;;;6.50;99.90;;;;;;5030479;28;20144;-80
2022/12/30 03:57:31;;;;;;;18.00;2.55;;;5.60;99.90;;;;;;5026619;28;20045;-80
2022/12/30 03:59:57;;;;;;;21.05;3.25;;;5.50;99.90;;;;;;5010748;28;20038;-81
2022/12/30 04:02:23;;;;;;;20.17;2.75;;;5.50;99.90;;;;;;5010355;28;20045;-81
2022/12/30 04:04:49;;;;;;;21.20;2.67;;;5.50;99.90;;;;;;5010568;28;20048;-80
2022/12/30 04:07:14;;;;;;;20.15;3.42;;;5.50;99.90;;;;;;5010373;28;20473;-81
2022/12/30 04:09:40;;;;;;;16.98;3.03;;;5.50;99.90;;;;;;5010140;28;20126;-81
2022/12/30 04:12:06;;;;;;;16.40;2.47;;;5.50;99.90;;;;;;4977638;28;20052;-81
2022/12/30 04:14:32;;;;;;;15.98;3.60;;;5.50;99.90;;;;;;4993625;28;20077;-81
2022/12/30 04:16:57;;;;;;;18.75;2.72;;;5.50;99.90;;;;;;5027401;28;20106;-81
2022/12/30 04:19:23;;;;;;;20.40;3.25;;;5.40;99.90;;;;;;5010603;28;20532;-81
2022/12/30 04:21:49;;;;;;;19.48;2.95;;;5.40;99.90;;;;;;5010561;28;20045;-80
2022/12/30 04:24:15;;;;;;;19.48;3.22;;;5.60;99.90;;;;;;5026462;28;20499;-80
2022/12/30 04:26:41;;;;;;;22.92;3.60;;;5.40;99.90;;;;;;5026555;28;20053;-80
2022/12/30 04:29:07;;;;;;;19.98;4.10;;;5.40;99.90;;;;;;5010089;28;20586;-81
2022/12/30 04:31:32;;;;;;;21.88;3.22;;;6.40;99.90;;;;;;5009716;28;20400;-80
2022/12/30 04:33:58;;;;;;;22.58;3.78;;;5.60;99.90;;;;;;5026312;28;20041;-81
2022/12/30 04:36:24;;;;;;;18.60;2.72;;;5.50;99.90;;;;;;5026042;28;20041;-80
2022/12/30 04:38:50;;;;;;;16.30;2.88;;;5.50;99.90;;;;;;4993505;28;20048;-80
2022/12/30 04:41:17;;;;;;;21.20;2.67;;;6.60;99.90;;;;;;5009786;28;20052;-81
2022/12/30 04:43:43;;;;;;;22.15;2.70;;;5.60;99.90;;;;;;4993693;28;20045;-81
2022/12/30 04:46:09;;;;;;;23.00;3.22;;;5.60;99.90;;;;;;5009831;28;20539;-80
2022/12/30 04:48:35;;;;;;;21.00;3.08;;;5.60;99.90;;;;;;5026080;28;20050;-81
2022/12/30 04:51:00;;;;;;;13.50;3.28;;;5.60;99.90;;;;;;5026138;28;20046;-81
2022/12/30 04:53:26;;;;;;;23.60;3.70;;;5.70;99.90;;;;;;4992703;28;20064;-81
2022/12/30 04:55:53;;;;;;;15.35;2.60;;;5.70;99.90;;;;;;5009558;28;20185;-81
2022/12/30 04:58:20;;;;;;;19.20;3.67;;;5.70;99.90;;;;;;5025882;28;20096;-81
2022/12/30 05:00:47;;;;;;;19.67;2.92;;;6.80;99.90;;;;;;4993202;28;20065;-81
2022/12/30 05:03:13;;;;;;;9.52;2.22;;;5.70;99.90;;;;;;5009645;28;20262;-81
2022/12/30 05:05:39;;;;;;;17.33;3.28;;;5.70;99.90;;;;;;5009435;28;20266;-81
2022/12/30 05:08:05;;;;;;;14.40;2.20;;;5.70;99.90;;;;;;5009510;28;20064;-80
2022/12/30 05:10:33;;;;;;;25.02;2.85;;;6.00;99.90;;;;;;5025595;28;20489;-81
2022/12/30 05:12:59;;;;;;;11.70;2.83;;;5.60;99.90;;;;;;5025831;28;20081;-81
2022/12/30 05:15:25;;;;;;;22.20;3.40;;;6.80;99.90;;;;;;5025686;28;20103;-80
2022/12/30 05:17:51;;;;;;;10.30;3.42;;;5.70;99.90;;;;;;5027190;28;20119;-81
2022/12/30 05:20:17;;;;;;;14.43;3.55;;;6.50;99.90;;;;;;5009542;28;20449;-80
2022/12/30 05:22:43;;;;;;;21.80;4.13;;;5.70;99.90;;;;;;4992452;28;20046;-80
2022/12/30 05:27:54;;;;;;;17.52;3.47;;;5.70;99.90;;;;;;5027126;28;20056;-80
2022/12/30 05:30:20;;;;;;;13.13;3.30;;;5.80;99.90;;;;;;5009001;28;20033;-80
2022/12/30 05:32:46;;;;;;;17.45;5.50;;;5.80;99.90;;;;;;5025617;28;20041;-81
2022/12/30 05:35:12;;;;;;;19.15;4.85;;;6.00;99.90;;;;;;5025797;28;20041;-81
2022/12/30 05:37:38;;;;;;;14.38;3.63;;;5.80;99.90;;;;;;5026384;28;20053;-81
2022/12/30 05:40:04;;;;;;;15.18;4.07;;;5.80;99.90;;;;;;5027008;28;20045;-81
2022/12/30 05:42:30;;;;;;;18.75;4.07;;;5.80;99.90;;;;;;5009758;28;20140;-81
2022/12/30 05:44:56;;;;;;;17.92;4.72;;;5.80;99.90;;;;;;5009023;28;20540;-81
2022/12/30 05:47:21;;;;;;;22.65;4.35;;;5.90;99.90;;;;;;5025324;28;20056;-81
2022/12/30 05:49:48;;;;;;;17.83;4.50;;;5.90;99.90;;;;;;5025566;28;20045;-80
2022/12/30 05:52:14;;;;;;;16.02;3.63;;;5.90;99.90;;;;;;4976890;28;20045;-81
2022/12/30 05:54:41;;;;;;;17.55;3.75;;;6.10;99.90;;;;;;5025596;28;20045;-81
2022/12/30 05:57:07;;;;;;;15.93;4.70;;;5.90;99.90;;;;;;5024741;28;20061;-81
2022/12/30 05:59:33;;;;;;;20.08;4.57;;;6.10;99.90;;;;;;5008715;28;20107;-81
2022/12/30 06:01:59;;;;;;;19.92;5.47;;;7.10;99.90;;;;;;4992295;28;20610;-81
2022/12/30 06:04:25;;;;;;;12.27;3.40;;;5.40;99.90;;;;;;5010505;28;20057;-80
2022/12/30 06:06:50;;;;;;;16.55;4.07;;;5.90;99.90;;;;;;5029086;28;20046;-81
2022/12/30 06:09:16;;;;;;;25.45;5.97;;;5.80;99.90;;;;;;5013070;28;20045;-80
2022/12/30 06:11:42;;;;;;;17.63;4.65;;;6.10;99.90;;;;;;4996207;28;20128;-80
2022/12/30 06:14:09;;;;;;;20.05;4.68;;;6.80;99.90;;;;;;5012105;28;20034;-81
2022/12/30 06:16:35;;;;;;;13.25;3.80;;;5.90;99.90;;;;;;5029170;28;20080;-81
2022/12/30 06:19:01;;;;;;;13.95;3.92;;;5.80;99.90;;;;;;4995804;28;20103;-81
2022/12/30 06:21:26;;;;;;;15.88;3.85;;;5.70;99.90;;;;;;5012441;28;20045;-81
2022/12/30 06:23:52;;;;;;;14.55;3.80;;;5.60;99.90;;;;;;5012448;28;20041;-81
2022/12/30 06:26:18;;;;;;;10.95;3.45;;;5.60;99.90;;;;;;4995784;28;20053;-80
2022/12/30 06:28:43;;;;;;;17.05;3.50;;;5.50;99.90;;;;;;5012780;28;20075;-81
2022/12/30 06:31:09;;;;;;;15.68;3.42;;;6.50;99.90;;;;;;5011762;28;20470;-81
2022/12/30 06:33:36;;;;;;;12.32;3.00;;;5.40;99.90;;;;;;4996470;28;20042;-81
2022/12/30 06:36:02;;;;;;;11.32;3.10;;;5.40;99.90;;;;;;4995483;28;20046;-80
2022/12/30 06:38:27;;;;;;;16.63;4.35;;;5.30;99.90;;;;;;5012324;28;20073;-81
2022/12/30 06:40:53;;;;;;;12.70;2.55;;;5.20;99.90;;;;;;5011743;28;20049;-82
2022/12/30 06:43:19;;;;;;;12.40;2.67;;;5.20;99.90;;;;;;5011698;28;20055;-82
2022/12/30 06:45:45;;;;;;;16.40;2.78;;;5.10;99.90;;;;;;5029928;28;20132;-82
2022/12/30 06:48:11;;;;;;;15.07;3.47;;;5.60;99.90;;;;;;5028103;28;20038;-82
2022/12/30 06:50:37;;;;;;;20.63;3.22;;;5.10;99.90;;;;;;5012285;28;20080;-82
2022/12/30 06:53:04;;;;;;;12.57;2.75;;;6.10;99.90;;;;;;4995425;28;20515;-82
2022/12/30 06:55:29;;;;;;;8.65;2.33;;;6.00;99.90;;;;;;5030169;28;20041;-82
2022/12/30 06:57:55;;;;;;;13.63;2.65;;;5.10;99.90;;;;;;5012364;28;20608;-82
2022/12/30 07:00:21;;;;;;;16.83;2.67;;;5.00;99.90;;;;;;5028995;28;20064;-83
2022/12/30 07:02:47;;;;;;;12.65;2.63;;;6.30;99.90;;;;;;5028203;28;20390;-82
2022/12/30 07:05:12;;;;;;;13.43;2.83;;;6.00;99.90;;;;;;5027840;28;20476;-82
2022/12/30 07:07:38;;;;;;;20.15;2.67;;;5.00;99.90;;;;;;5028019;28;20057;-82
2022/12/30 07:10:04;;;;;;;17.75;2.72;;;5.00;99.90;;;;;;4995412;28;20472;-82
2022/12/30 07:12:30;;;;;;;19.17;2.95;;;5.00;99.90;;;;;;5011444;28;20053;-82
2022/12/30 07:14:56;;;;;;;16.65;2.30;;;5.80;99.90;;;;;;5011230;28;20041;-82
2022/12/30 07:17:21;;;;;;;11.05;2.20;;;5.00;99.90;;;;;;5011073;28;20424;-82
2022/12/30 07:19:47;;;;;;;15.38;2.22;;;5.70;99.90;;;;;;5011397;28;20073;-82
2022/12/30 07:22:13;;;;;;;18.08;2.88;;;5.00;99.90;;;;;;5027785;28;20045;-82
2022/12/30 07:24:39;;;;;;;14.55;2.13;;;5.00;99.90;;;;;;5011171;28;20056;-83
2022/12/30 07:27:05;;;;;;;11.73;2.42;;;5.00;99.90;;;;;;5010814;28;20045;-82
2022/12/30 07:29:31;;;;;;;17.15;2.72;;;5.00;99.90;;;;;;4995358;28;20081;-82
2022/12/30 07:31:57;;;;;;;11.23;2.30;;;5.00;99.90;;;;;;5027264;28;20133;-82
2022/12/30 07:34:23;;;;;;;16.77;2.72;;;5.00;99.90;;;;;;5027221;28;20034;-82
2022/12/30 07:36:49;;;;;;;13.73;2.65;;;5.00;99.90;;;;;;5010715;28;20143;-83
2022/12/30 07:39:14;;;;;;;17.50;2.50;;;5.00;99.90;;;;;;5027060;28;20143;-82
2022/12/30 07:41:40;;;;;;;17.35;2.75;;;5.00;99.90;;;;;;4994650;28;20044;-82
2022/12/30 07:44:06;;;;;;;17.23;2.35;;;4.90;99.90;;;;;;5026639;28;20045;-82
2022/12/30 07:46:32;;;;;;;17.27;2.92;;;4.90;99.90;;;;;;5027249;28;20045;-82
2022/12/30 07:48:57;;;;;;;10.88;2.15;;;4.90;99.90;;;;;;4994671;28;20416;-82
2022/12/30 07:51:23;;;;;;;12.52;2.80;;;4.90;99.90;;;;;;5026762;28;20072;-83
2022/12/30 07:53:49;;;;;;;14.35;2.50;;;4.90;99.90;;;;;;5010694;28;20038;-82
2022/12/30 07:56:15;;;;;;;18.42;3.05;;;4.90;99.90;;;;;;5026764;28;20060;-82
2022/12/30 07:58:41;;;;;;;15.65;2.63;;;4.90;99.90;;;;;;5026962;28;20049;-82
2022/12/30 08:01:10;;;;;;;10.85;2.63;;;4.90;99.90;;;;;;5010157;28;20575;-82
2022/12/30 08:03:37;;;;;;;10.65;2.58;;;5.20;99.90;;;;;;5010658;28;20497;-82
2022/12/30 08:06:08;;;;;;;14.23;2.30;;;5.10;99.90;;;;;;5026801;28;20049;-81
2022/12/30 08:08:34;;;;;;;10.68;2.15;;;4.90;99.90;;;;;;5026939;28;20050;-82
2022/12/30 08:11:04;;;;;;;17.15;2.45;;;4.90;99.90;;;;;;4995571;28;20052;-82
2022/12/30 08:13:32;;;;;;;20.42;2.38;;;4.90;99.90;;;;;;5011128;28;20373;-82
2022/12/30 08:15:58;;;;;;;14.93;2.05;;;4.90;99.90;;;;;;5027862;28;20041;-83
2022/12/30 08:18:23;;;;;;;10.30;1.85;;;4.90;99.90;;;;;;4993741;28;20055;-82
2022/12/30 08:20:49;;;;;;;14.98;2.35;;;4.90;99.90;;;;;;5026787;28;20041;-82
2022/12/30 08:23:15;;;;;;;18.27;2.65;;;5.00;99.90;;;;;;5010364;28;20045;-82
2022/12/30 08:25:41;;;;;;;16.33;2.25;;;5.00;99.90;;;;;;5009956;28;20492;-82
2022/12/30 08:28:06;;;;;;;13.05;2.28;;;5.00;99.90;;;;;;5009703;28;20081;-82
2022/12/30 08:30:32;;;;;;;9.20;2.17;;;5.00;99.90;;;;;;5010105;28;20052;-82
2022/12/30 08:32:58;;;;;;;16.23;2.75;;;5.50;99.90;;;;;;5010023;28;20055;-82
2022/12/30 08:35:24;;;;;;;17.10;2.70;;;6.20;99.90;;;;;;5009884;28;20125;-81
2022/12/30 08:37:49;;;;;;;9.57;2.03;;;5.10;99.90;;;;;;5009882;28;20087;-81
2022/12/30 08:40:15;;;;;;;20.83;2.75;;;5.10;99.90;;;;;;5026218;28;20553;-82
2022/12/30 08:42:41;;;;;;;16.98;2.38;;;5.10;99.90;;;;;;4993757;28;20065;-82
2022/12/30 08:45:07;;;;;;;19.23;4.10;;;5.10;99.90;;;;;;5009770;28;20042;-82
2022/12/30 08:47:34;;;;;;;9.98;2.25;;;5.20;99.90;;;;;;5025900;28;20049;-83
2022/12/30 08:50:01;;;;;;;9.77;2.15;;;5.20;99.90;;;;;;5026293;28;20081;-84
2022/12/30 08:52:27;;;;;;;8.50;2.03;;;5.20;99.90;;;;;;5009321;28;20041;-83
2022/12/30 08:54:53;;;;;;;11.90;2.58;;;6.50;99.90;;;;;;4993618;28;20098;-83
2022/12/30 08:57:19;;;;;;;13.25;1.95;;;5.20;99.90;;;;;;5025858;28;20100;-82
2022/12/30 08:59:45;;;;;;;12.13;3.03;;;6.30;99.90;;;;;;5010093;28;20509;-82
2022/12/30 09:02:12;;;;;;;11.35;2.03;;;5.30;99.90;;;;;;5026344;28;20094;-81
2022/12/30 09:04:38;;;;;;;14.48;2.42;;;5.60;99.90;;;;;;5009208;28;20542;-81
2022/12/30 09:07:03;;;;;;;15.98;2.15;;;6.50;99.90;;;;;;5009861;28;20049;-82
2022/12/30 09:09:29;;;;;;;21.15;2.15;;;5.40;99.90;;;;;;5025626;28;20408;-81
2022/12/30 09:11:56;;;;;;;15.40;2.13;;;6.80;99.90;;;;;;4993063;28;20342;-80
2022/12/30 09:14:22;;;;;;;15.27;2.45;;;5.90;99.90;;;;;;5025619;28;20064;-80
2022/12/30 09:16:48;;;;;;;17.88;2.53;;;5.50;99.90;;;;;;5009309;28;20046;-81
2022/12/30 09:19:14;;;;;;;21.20;2.58;;;5.50;99.90;;;;;;5025629;28;20056;-81
2022/12/30 09:21:40;;;;;;;13.20;2.50;;;5.60;99.90;;;;;;5009619;28;20377;-82
2022/12/30 09:24:06;;;;;;;12.85;2.00;;;6.50;99.90;;;;;;5009310;28;20051;-81
2022/12/30 09:26:32;;;;;;;10.10;1.80;;;5.60;99.90;;;;;;4992867;28;20041;-82
2022/12/30 09:28:58;;;;;;;9.75;1.42;;;5.60;99.90;;;;;;4993178;28;20087;-81
2022/12/30 09:31:24;;;;;;;16.77;3.45;;;5.70;99.90;;;;;;5008827;28;20088;-80
2022/12/30 09:33:50;;;;;;;12.70;1.85;;;5.80;99.90;;;;;;5009457;28;20068;-81
2022/12/30 09:36:19;;;;;;;9.98;2.25;;;6.50;99.90;;;;;;4993621;28;20045;-82
2022/12/30 09:38:45;;;;;;;13.52;1.73;;;5.70;99.90;;;;;;5010083;28;20092;-82
2022/12/30 09:44:36;;;;;;;12.18;2.10;;;5.70;99.90;;;;;;5029072;28;20103;-81
2022/12/30 09:47:18;;;;;;;11.60;1.80;;;5.70;99.90;;;;;;5013362;28;20045;-83
2022/12/30 09:49:49;;;;;;;19.77;2.35;;;5.90;99.90;;;;;;5013555;28;20068;-81
2022/12/30 09:52:38;;;;;;;12.10;1.98;;;5.70;99.90;;;;;;5012892;28;20159;-81
2022/12/30 09:55:16;;;;;;;15.63;2.38;;;5.80;99.90;;;;;;5029571;28;20576;-81
2022/12/30 09:57:48;;;;;;;9.95;2.08;;;5.80;99.90;;;;;;5028950;28;20050;-81
2022/12/30 10:00:28;;;;;;;15.60;2.08;;;6.20;99.90;;;;;;5012859;28;20446;-80
2022/12/30 10:03:14;;;;;;;9.73;1.85;;;5.90;99.90;;;;;;5029517;28;20060;-81
2022/12/30 10:06:13;;;;;;;14.00;2.33;;;5.90;99.90;;;;;;5029120;28;20052;-80
2022/12/30 10:08:51;;;;;;;10.75;2.90;;;5.90;99.90;;;;;;5028868;28;20053;-81
2022/12/30 10:11:36;;;;;;;14.88;2.97;;;6.00;99.90;;;;;;5029151;28;20504;-80
2022/12/30 10:14:20;;;;;;;7.30;2.17;;;5.60;99.90;;;;;;5028864;28;20118;-81
2022/12/30 10:17:00;;;;;;;6.70;1.35;;;6.00;99.90;;;;;;5028990;28;20080;-80
2022/12/30 10:19:44;;;;;;;10.80;1.77;;;6.10;99.90;;;;;;5012710;28;20045;-81
2022/12/30 10:22:35;;;;;;;14.07;1.98;;;6.10;99.90;;;;;;5028608;28;20073;-80
2022/12/30 10:25:01;;;;;;;10.73;2.88;;;6.20;99.90;;;;;;5012426;28;20045;-81
2022/12/30 10:27:40;;;;;;;14.55;2.00;;;6.30;99.90;;;;;;5028692;28;20440;-81
2022/12/30 10:30:17;;;;;;;11.73;1.88;;;6.30;99.90;;;;;;5028946;28;20515;-81
2022/12/30 10:33:15;;;;;;;11.50;1.65;;;6.30;99.90;;;;;;5028507;28;20072;-80
2022/12/30 10:35:42;;;;;;;12.75;1.73;;;6.40;99.90;;;;;;5019339;28;20050;-80
2022/12/30 10:38:18;;;;;;;12.07;1.77;;;6.80;99.90;;;;;;5011856;28;20132;-81
2022/12/30 10:41:05;;;;;;;14.32;2.35;;;6.50;99.90;;;;;;5012157;28;20046;-81
2022/12/30 10:43:58;;;;;;;10.30;3.05;;;6.50;99.90;;;;;;5028198;28;20091;-82
2022/12/30 10:46:43;;;;;;;14.07;2.17;;;6.50;99.90;;;;;;5012127;28;20131;-81
2022/12/30 10:49:34;;;;;;;6.97;1.65;;;6.60;99.90;;;;;;5028373;28;20124;-82
2022/12/30 10:52:01;;;;;;;8.43;1.42;;;6.60;99.90;;;;;;5011501;28;20045;-81
2022/12/30 10:54:27;;;;;;;5.68;1.15;;;6.70;99.90;;;;;;5011892;28;20057;-81
2022/12/30 10:56:53;;;;;;;7.78;1.85;;;7.30;99.90;;;;;;5030440;28;20042;-80
2022/12/30 10:59:25;;;;;;;9.38;1.60;;;6.80;99.90;;;;;;5032809;28;20519;-82
2022/12/30 11:01:58;;;;;;;7.53;1.50;;;6.80;99.90;;;;;;5031812;28;20090;-82
2022/12/30 11:04:36;;;;;;;7.15;1.50;;;7.50;99.90;;;;;;5031457;28;20047;-80
2022/12/30 11:07:09;;;;;;;4.20;1.02;;;6.90;99.90;;;;;;5031382;28;20083;-82
2022/12/30 11:09:36;;;;;;;10.07;1.98;;;7.00;99.90;;;;;;5014767;28;20107;-81
2022/12/30 11:15:11;;;;;;;6.05;1.38;;;7.00;99.90;;;;;;5031460;28;20098;-82
2022/12/30 11:17:44;;;;;;;5.80;1.23;;;7.10;99.90;;;;;;5030383;28;20102;-81
2022/12/30 11:20:13;;;;;;;7.95;1.20;;;7.10;99.90;;;;;;5031449;28;20052;-82
2022/12/30 11:22:46;;;;;;;10.65;1.38;;;8.00;99.90;;;;;;5014462;28;20517;-81
2022/12/30 11:25:29;;;;;;;7.15;1.10;;;7.10;99.90;;;;;;5031068;28;20045;-82
2022/12/30 11:27:58;;;;;;;6.32;1.40;;;7.10;99.90;;;;;;5014423;28;20102;-82
2022/12/30 11:30:26;;;;;;;6.70;1.10;;;7.20;99.90;;;;;;5030120;28;20048;-82
2022/12/30 11:32:54;;;;;;;5.07;0.95;;;7.20;99.90;;;;;;5030722;28;20052;-82
2022/12/30 11:35:43;;;;;;;7.85;2.38;;;8.30;99.90;;;;;;5030593;28;20056;-82
2022/12/30 11:38:33;;;;;;;7.05;1.15;;;6.80;99.90;;;;;;5030785;28;20110;-82
2022/12/30 11:41:27;;;;;;;7.30;1.15;;;7.30;99.90;;;;;;5022502;28;20057;-82
2022/12/30 11:43:59;;;;;;;9.55;1.30;;;7.30;99.90;;;;;;5011762;28;20053;-82
2022/12/30 11:46:30;;;;;;;4.72;0.82;;;7.40;99.90;;;;;;5014087;28;20045;-83
2022/12/30 11:49:03;;;;;;;8.93;1.20;;;7.40;99.90;;;;;;5047796;28;20041;-83
2022/12/30 11:51:34;;;;;;;9.02;3.28;;;7.50;99.90;;;;;;5030011;28;20127;-82
2022/12/30 11:54:12;;;;;;;6.38;1.17;;;7.50;99.90;;;;;;5030699;28;20135;-82
2022/12/30 11:56:50;;;;;;;7.03;1.05;;;7.80;99.90;;;;;;5013222;28;20060;-82
2022/12/30 11:59:18;;;;;;;9.27;1.27;;;7.60;99.90;;;;;;5013952;28;20148;-82
2022/12/30 12:01:51;;;;;;;6.63;1.55;;;7.60;99.90;;;;;;5028505;28;20128;-82
2022/12/30 12:04:36;;;;;;;;;;;7.60;99.90;;;;;;5031167;28;20403;-83
2022/12/30 12:07:04;;;;;;;7.15;0.90;;;7.60;99.90;;;;;;5030066;28;19966;-82
2022/12/30 12:09:42;;;;;;;5.82;1.58;;;7.70;99.90;;;;;;5029540;28;20492;-81
2022/12/30 12:12:16;;;;;;;4.90;0.95;;;8.00;99.90;;;;;;5030731;28;20055;-82
2022/12/30 12:15:03;;;;;;;8.52;1.73;;;8.10;99.90;;;;;;5029944;28;20163;-82
2022/12/30 12:17:51;;;;;;;12.10;0.95;;;7.80;99.90;;;;;;5029827;28;20526;-83
2022/12/30 12:20:21;;;;;;;11.88;1.50;;;6.90;99.90;;;;;;5030417;28;20044;-83
2022/12/30 12:23:09;;;;;;;5.88;1.35;;;7.90;99.90;;;;;;5029931;28;20071;-82
2022/12/30 12:26:04;;;;;;;6.93;0.98;;;7.90;99.90;;;;;;4997603;28;20052;-82
2022/12/30 12:28:31;;;;;;;6.13;1.20;;;7.90;99.90;;;;;;5008315;28;20105;-82
2022/12/30 12:31:16;;;;;;;8.70;0.68;;;8.00;99.90;;;;;;5028946;28;20054;-86
2022/12/30 12:33:48;;;;;;;5.75;1.08;;;8.00;99.90;;;;;;5013325;28;20041;-83
2022/12/30 12:36:53;;;;;;;6.28;1.30;;;8.00;99.90;;;;;;5013153;28;20555;-82
2022/12/30 12:39:35;;;;;;;8.63;2.38;;;8.00;99.90;;;;;;5028839;28;20572;-82
2022/12/30 12:42:40;;;;;;;17.88;8.32;;;8.10;99.90;;;;;;5013625;28;20041;-81
2022/12/30 12:45:31;;;;;;;4.85;1.05;;;8.10;99.90;;;;;;5002686;28;20132;-81
2022/12/30 12:48:12;;;;;;;4.72;1.30;;;8.20;99.90;;;;;;5012650;28;20075;-79
2022/12/30 12:50:59;;;;;;;3.65;0.80;;;8.20;99.90;;;;;;5047620;28;20060;-81
2022/12/30 12:53:34;;;;;;;5.43;0.90;;;8.20;99.90;;;;;;5029234;28;20045;-82
2022/12/30 12:56:26;;;;;;;4.00;0.80;;;8.20;99.90;;;;;;5028576;28;20044;-81
2022/12/30 12:59:21;;;;;;;3.50;1.00;;;8.20;99.90;;;;;;5019295;28;20519;-82
2022/12/30 13:02:01;;;;;;;6.65;1.20;;;8.20;99.90;;;;;;5022539;28;20136;-82
2022/12/30 13:04:59;;;;;;;7.68;1.10;;;8.20;99.90;;;;;;5027436;28;20128;-81
2022/12/30 13:07:47;;;;;;;5.00;1.23;;;8.30;99.90;;;;;;5026688;28;20045;-87
2022/12/30 13:10:30;;;;;;;4.32;0.98;;;8.30;99.90;;;;;;5026881;28;20045;-86
2022/12/30 13:13:14;;;;;;;10.20;1.42;;;8.90;99.90;;;;;;5008890;28;20049;-81
2022/12/30 13:15:49;;;;;;;3.72;1.02;;;8.40;99.90;;;;;;5026654;28;20447;-81
2022/12/30 13:18:22;;;;;;;6.43;1.80;;;9.00;99.90;;;;;;5009253;28;20401;-81
2022/12/30 13:20:55;;;;;;;4.25;0.93;;;8.40;99.90;;;;;;5009840;28;20045;-82
2022/12/30 13:23:24;;;;;;;8.93;0.85;;;8.50;99.90;;;;;;5027055;28;20045;-83
2022/12/30 13:26:02;;;;;;;7.10;1.45;;;8.50;99.90;;;;;;5026716;28;20451;-82
2022/12/30 13:28:30;;;;;;;8.23;2.55;;;8.50;99.90;;;;;;5027568;28;20128;-82
2022/12/30 13:31:17;;;;;;;6.68;1.08;;;8.50;99.90;;;;;;5009063;28;20049;-84
2022/12/30 13:33:46;;;;;;;5.32;1.00;;;8.50;99.90;;;;;;5010217;28;20045;-83
2022/12/30 13:36:20;;;;;;;9.85;1.10;;;8.50;99.90;;;;;;5027148;28;20049;-81
2022/12/30 13:39:04;;;;;;;5.45;1.00;;;8.60;99.90;;;;;;5009453;28;20132;-84
2022/12/30 13:42:27;;;;;;;4.43;0.80;;;8.60;99.90;;;;;;5026437;28;20049;-83
2022/12/30 13:44:54;;;;;;;5.30;1.02;;;8.60;99.90;;;;;;4971743;28;20050;-83
2022/12/30 13:47:47;;;;;;;5.78;0.80;;;8.60;99.90;;;;;;4988153;28;20064;-83
2022/12/30 13:50:18;;;;;;;6.05;1.40;;;8.70;99.90;;;;;;5002089;28;20060;-83
2022/12/30 13:52:50;;;;;;;8.90;1.65;;;8.70;99.90;;;;;;5024953;28;20099;-82
2022/12/30 13:55:33;;;;;;;8.57;1.33;;;8.80;99.90;;;;;;5009090;28;20049;-83
2022/12/30 13:58:05;;;;;;;6.25;1.55;;;8.80;99.90;;;;;;5025314;28;20459;-82
2022/12/30 14:00:38;;;;;;;6.33;1.50;;;8.90;99.90;;;;;;5007216;28;20045;-84
2022/12/30 14:03:30;;;;;;;11.95;1.40;;;8.90;99.90;;;;;;5025122;28;20409;-85
2022/12/30 14:06:01;;;;;;;4.97;0.95;;;8.90;99.90;;;;;;5023316;28;20481;-83
2022/12/30 14:08:27;;;;;;;7.75;1.23;;;8.90;99.90;;;;;;5007881;28;20034;-82